createdAt,value
2023-05-08T00:01:42.951Z,55.67
2023-05-08T00:04:13.657Z,55.11
2023-05-08T00:06:42.393Z,54.75
2023-05-08T00:09:11.243Z,54.95
2023-05-08T00:11:39.706Z,54.82
2023-05-08T00:14:08.208Z,54.79
2023-05-08T00:16:37.483Z,55.17
2023-05-08T00:19:06.010Z,55.38
2023-05-08T00:21:35.821Z,55.68
2023-05-08T00:24:04.706Z,55.77
2023-05-08T00:26:33.259Z,55.97
2023-05-08T00:29:01.630Z,56.16
2023-05-08T00:31:30.225Z,56.16
2023-05-08T00:33:59.098Z,56.43
2023-05-08T00:36:27.739Z,57.01
2023-05-08T00:38:57.577Z,57.02
2023-05-08T00:41:26.982Z,56.83
2023-05-08T00:43:55.459Z,57.32
2023-05-08T00:46:24.351Z,57.49
2023-05-08T00:48:53.591Z,57.51
2023-05-08T00:51:22.965Z,57.90
2023-05-08T00:53:51.763Z,58.06
2023-05-08T00:56:22.105Z,58.43
2023-05-08T00:58:51.385Z,58.41
2023-05-08T01:01:20.247Z,58.60
2023-05-08T01:03:49.146Z,58.81
2023-05-08T01:06:17.745Z,59.06
2023-05-08T01:08:46.927Z,58.97
2023-05-08T01:11:24.833Z,59.13
2023-05-08T01:14:06.049Z,59.12
2023-05-08T01:16:43.126Z,59.47
2023-05-08T01:19:40.336Z,59.17
2023-05-08T01:22:21.608Z,58.95
2023-05-08T01:25:18.192Z,59.27
2023-05-08T01:28:30.227Z,59.68
2023-05-08T01:31:11.170Z,59.76
2023-05-08T01:33:48.748Z,59.53
2023-05-08T01:36:27.358Z,59.96
2023-05-08T01:39:06.767Z,60.15
2023-05-08T01:41:38.233Z,60.39
2023-05-08T01:44:15.198Z,60.27
2023-05-08T01:46:49.422Z,60.56
2023-05-08T01:49:25.489Z,60.87
2023-05-08T01:52:00.591Z,60.76
2023-05-08T01:54:35.472Z,60.36
2023-05-08T01:57:05.848Z,60.37
2023-05-08T01:59:37.220Z,60.05
2023-05-08T02:02:07.132Z,60.14
2023-05-08T02:04:37.518Z,59.86
2023-05-08T02:07:09.516Z,59.81
2023-05-08T02:09:40.390Z,60.31
2023-05-08T02:12:10.616Z,60.67
2023-05-08T02:14:39.849Z,60.59
2023-05-08T02:17:11.100Z,60.46
2023-05-08T02:19:42.706Z,60.32
2023-05-08T02:22:12.215Z,60.38
2023-05-08T02:24:42.819Z,60.14
2023-05-08T02:27:12.867Z,60.05
2023-05-08T02:29:41.711Z,60.01
2023-05-08T02:32:12.342Z,60.24
2023-05-08T02:34:51.236Z,60.54
2023-05-08T02:37:28.868Z,60.64
2023-05-08T02:39:59.848Z,60.58
2023-05-08T02:42:28.523Z,60.40
2023-05-08T02:44:56.926Z,60.75
2023-05-08T02:47:28.842Z,60.80
2023-05-08T02:50:02.068Z,60.57
2023-05-08T02:52:34.389Z,60.32
2023-05-08T02:55:08.321Z,59.87
2023-05-08T02:57:41.713Z,59.75
2023-05-08T03:00:16.762Z,59.58
2023-05-08T03:02:52.368Z,59.42
2023-05-08T03:05:31.167Z,59.08
2023-05-08T03:08:06.597Z,58.76
2023-05-08T03:10:36.316Z,58.84
2023-05-08T03:13:09.409Z,58.89
2023-05-08T03:15:43.514Z,58.68
2023-05-08T03:18:15.755Z,58.22
2023-05-08T03:20:49.566Z,58.14
2023-05-08T03:23:21.649Z,57.90
2023-05-08T03:25:50.304Z,57.67
2023-05-08T03:28:20.040Z,57.03
2023-05-08T03:30:49.634Z,56.98
2023-05-08T03:33:19.625Z,56.82
2023-05-08T03:35:51.248Z,56.68
2023-05-08T03:38:20.741Z,56.38
2023-05-08T03:40:49.470Z,56.21
2023-05-08T03:43:19.258Z,55.97
2023-05-08T03:45:48.937Z,56.04
2023-05-08T03:48:19.298Z,55.87
2023-05-08T03:50:49.543Z,55.92
2023-05-08T03:53:18.185Z,55.65
2023-05-08T03:55:46.979Z,55.46
2023-05-08T03:58:23.017Z,55.49
2023-05-08T04:01:03.022Z,55.44
2023-05-08T04:03:54.962Z,55.56
2023-05-08T04:06:42.024Z,55.55
2023-05-08T04:09:24.923Z,55.77
2023-05-08T04:12:02.180Z,55.71
2023-05-08T04:14:37.157Z,55.82
2023-05-08T04:17:11.110Z,55.77
2023-05-08T04:19:44.640Z,55.48
2023-05-08T04:22:16.597Z,55.65
2023-05-08T04:24:49.346Z,55.70
2023-05-08T04:27:18.711Z,55.43
2023-05-08T04:29:47.429Z,55.50
2023-05-08T04:32:17.957Z,55.62
2023-05-08T04:34:46.560Z,55.59
2023-05-08T04:37:27.001Z,55.42
2023-05-08T04:39:56.668Z,55.41
2023-05-08T04:42:26.471Z,55.54
2023-05-08T04:44:56.937Z,55.13
2023-05-08T04:47:26.416Z,54.58
2023-05-08T04:49:54.858Z,54.36
2023-05-08T04:52:24.745Z,54.55
2023-05-08T04:54:53.079Z,53.99
2023-05-08T04:57:21.548Z,53.58
2023-05-08T04:59:50.292Z,53.55
2023-05-08T05:02:19.060Z,53.86
2023-05-08T05:04:49.108Z,53.64
2023-05-08T05:07:17.677Z,53.51
2023-05-08T05:09:47.620Z,53.63
2023-05-08T05:12:15.966Z,53.60
2023-05-08T05:14:44.470Z,53.39
2023-05-08T05:17:13.117Z,53.58
2023-05-08T05:19:41.619Z,53.49
2023-05-08T05:22:10.222Z,53.17
2023-05-08T05:24:39.929Z,52.98
2023-05-08T05:27:09.934Z,52.87
2023-05-08T05:29:39.369Z,52.75
2023-05-08T05:32:10.291Z,52.57
2023-05-08T05:34:39.413Z,52.07
2023-05-08T05:37:08.323Z,51.78
2023-05-08T05:39:37.936Z,51.16
2023-05-08T05:42:07.098Z,50.84
2023-05-08T05:44:37.044Z,51.46
2023-05-08T05:47:06.438Z,50.09
2023-05-08T05:49:34.990Z,50.03
2023-05-08T05:52:03.571Z,49.21
2023-05-08T05:54:32.004Z,49.17
2023-05-08T05:57:00.415Z,49.46
2023-05-08T05:59:28.848Z,48.46
2023-05-08T06:01:59.005Z,48.64
2023-05-08T06:04:27.970Z,48.52
2023-05-08T06:06:56.813Z,48.46
2023-05-08T06:09:26.299Z,48.58
2023-05-08T06:11:54.710Z,49.15
2023-05-08T06:14:23.231Z,48.68
2023-05-08T06:16:51.697Z,47.17
2023-05-08T06:19:24.292Z,46.07
2023-05-08T06:21:53.103Z,44.29
2023-05-08T06:24:21.800Z,42.94
2023-05-08T06:26:50.268Z,41.75
2023-05-08T06:29:18.579Z,40.59
2023-05-08T06:31:47.283Z,39.57
2023-05-08T06:34:15.803Z,38.92
2023-05-08T06:36:45.628Z,37.91
2023-05-08T06:39:14.061Z,37.51
2023-05-08T06:41:42.492Z,37.19
2023-05-08T06:44:16.785Z,36.95
2023-05-08T06:46:45.360Z,35.90
2023-05-08T06:49:13.777Z,35.51
2023-05-08T06:51:42.244Z,35.36
2023-05-08T06:54:12.065Z,34.80
2023-05-08T06:56:40.513Z,33.73
2023-05-08T06:59:09.396Z,32.72
2023-05-08T07:01:38.834Z,32.76
2023-05-08T07:04:07.503Z,32.09
2023-05-08T07:06:35.987Z,32.08
2023-05-08T07:09:04.452Z,31.75
2023-05-08T07:11:34.343Z,31.47
2023-05-08T07:14:02.811Z,31.65
2023-05-08T07:16:31.239Z,30.50
2023-05-08T07:18:59.811Z,30.66
2023-05-08T07:21:29.582Z,30.67
2023-05-08T07:23:58.171Z,30.61
2023-05-08T07:26:26.622Z,30.16
2023-05-08T07:28:56.481Z,29.95
2023-05-08T07:31:25.036Z,30.22
2023-05-08T07:33:53.609Z,30.46
2023-05-08T07:36:22.965Z,30.29
2023-05-08T07:38:54.396Z,29.74
2023-05-08T07:41:23.030Z,30.06
2023-05-08T07:43:51.501Z,30.20
2023-05-08T07:46:21.948Z,29.95
2023-05-08T07:48:50.295Z,29.36
2023-05-08T07:51:18.689Z,30.02
2023-05-08T07:53:48.999Z,30.70
2023-05-08T07:56:17.867Z,30.52
2023-05-08T07:58:47.980Z,30.33
2023-05-08T08:01:18.302Z,30.71
2023-05-08T08:03:49.434Z,31.33
2023-05-08T08:06:18.732Z,31.78
2023-05-08T08:08:47.151Z,32.06
2023-05-08T08:11:15.687Z,31.71
2023-05-08T08:13:44.091Z,31.93
2023-05-08T08:16:12.517Z,32.18
2023-05-08T08:18:41.948Z,32.72
2023-05-08T08:21:12.028Z,32.66
2023-05-08T08:23:40.599Z,32.40
2023-05-08T08:26:10.062Z,33.01
2023-05-08T08:28:38.492Z,32.83
2023-05-08T08:31:07.095Z,33.23
2023-05-08T08:33:35.857Z,32.50
2023-05-08T08:36:04.308Z,33.17
2023-05-08T08:38:34.146Z,33.09
2023-05-08T08:41:03.380Z,32.50
2023-05-08T08:43:31.975Z,33.04
2023-05-08T08:46:01.017Z,33.38
2023-05-08T08:48:31.164Z,33.44
2023-05-08T08:51:03.994Z,33.27
2023-05-08T08:53:38.643Z,34.15
2023-05-08T08:56:09.895Z,33.93
2023-05-08T08:58:43.564Z,33.96
2023-05-08T09:01:17.633Z,34.17
2023-05-08T09:03:49.167Z,34.27
2023-05-08T09:06:19.001Z,33.38
2023-05-08T09:08:49.236Z,33.02
2023-05-08T09:11:17.612Z,32.37
2023-05-08T09:13:46.083Z,31.46
2023-05-08T09:16:16.662Z,32.18
2023-05-08T09:18:45.209Z,32.26
2023-05-08T09:21:14.109Z,30.67
2023-05-08T09:23:59.510Z,31.52
2023-05-08T09:26:32.722Z,31.28
2023-05-08T09:29:13.456Z,31.04
2023-05-08T09:31:43.883Z,30.70
2023-05-08T09:34:24.967Z,30.76
2023-05-08T09:36:53.450Z,29.89
2023-05-08T09:39:26.865Z,30.23
2023-05-08T09:41:59.963Z,30.06
2023-05-08T09:44:28.781Z,29.97
2023-05-08T09:47:12.433Z,30.51
2023-05-08T09:49:41.080Z,30.60
2023-05-08T09:52:09.796Z,30.40
2023-05-08T09:54:39.786Z,30.67
2023-05-08T09:57:14.192Z,31.61
2023-05-08T09:59:42.843Z,32.17
2023-05-08T10:02:16.437Z,32.93
2023-05-08T10:04:47.352Z,32.34
2023-05-08T10:07:15.814Z,32.42
2023-05-08T10:10:00.141Z,32.31
2023-05-08T10:12:29.158Z,32.39
2023-05-08T10:14:59.308Z,31.94
2023-05-08T10:17:32.855Z,31.91
2023-05-08T10:20:04.885Z,31.87
2023-05-08T10:22:37.602Z,31.87
2023-05-08T10:25:16.710Z,31.56
2023-05-08T10:27:51.094Z,31.60
2023-05-08T10:30:25.240Z,32.25
2023-05-08T10:32:55.945Z,32.51
2023-05-08T10:35:26.370Z,32.12
2023-05-08T10:37:57.567Z,32.11
2023-05-08T10:40:27.486Z,31.76
2023-05-08T10:42:57.646Z,31.88
2023-05-08T10:45:28.268Z,31.67
2023-05-08T10:48:06.130Z,31.86
2023-05-08T10:50:52.657Z,32.63
2023-05-08T10:53:30.425Z,30.84
2023-05-08T10:56:00.997Z,31.60
2023-05-08T10:58:34.014Z,31.65
2023-05-08T11:01:16.480Z,31.61
2023-05-08T11:03:47.206Z,32.88
2023-05-08T11:06:15.994Z,32.33
2023-05-08T11:08:50.714Z,32.36
2023-05-08T11:11:32.162Z,32.00
2023-05-08T11:14:12.626Z,31.52
2023-05-08T11:17:10.046Z,31.06
2023-05-08T11:19:40.062Z,30.87
2023-05-08T11:22:16.470Z,30.66
2023-05-08T11:24:54.027Z,30.58
2023-05-08T11:27:39.858Z,30.64
2023-05-08T11:30:36.183Z,30.36
2023-05-08T11:33:19.240Z,29.99
2023-05-08T11:35:53.401Z,29.61
2023-05-08T11:38:34.235Z,29.94
2023-05-08T11:41:09.056Z,29.51
2023-05-08T11:44:09.657Z,30.12
2023-05-08T11:46:51.864Z,30.34
2023-05-08T11:49:26.947Z,30.93
2023-05-08T11:52:00.288Z,30.35
2023-05-08T11:54:32.047Z,30.39
2023-05-08T11:57:02.010Z,30.27
2023-05-08T11:59:36.863Z,29.30
2023-05-08T12:02:09.108Z,29.96
2023-05-08T12:04:45.886Z,30.30
2023-05-08T12:07:16.273Z,29.89
2023-05-08T12:09:44.690Z,29.34
2023-05-08T12:12:13.180Z,28.85
2023-05-08T12:14:43.034Z,29.12
2023-05-08T12:17:12.683Z,29.61
2023-05-08T12:19:41.302Z,29.30
2023-05-08T12:22:10.848Z,29.62
2023-05-08T12:24:40.735Z,29.78
2023-05-08T12:27:09.360Z,28.89
2023-05-08T12:29:39.869Z,28.59
2023-05-08T12:32:09.892Z,28.05
2023-05-08T12:34:38.392Z,28.38
2023-05-08T12:37:06.980Z,28.32
2023-05-08T12:39:38.703Z,29.00
2023-05-08T12:42:07.199Z,27.66
2023-05-08T12:44:35.621Z,28.60
2023-05-08T12:47:06.826Z,28.75
2023-05-08T12:49:36.852Z,28.43
2023-05-08T12:52:07.537Z,28.74
2023-05-08T12:54:37.970Z,28.42
2023-05-08T12:57:12.911Z,28.75
2023-05-08T12:59:42.025Z,29.10
2023-05-08T13:02:17.699Z,28.97
2023-05-08T13:04:50.007Z,29.41
2023-05-08T13:07:18.558Z,29.35
2023-05-08T13:10:00.272Z,29.58
2023-05-08T13:12:28.808Z,28.61
2023-05-08T13:14:58.124Z,29.24
2023-05-08T13:17:26.631Z,29.72
2023-05-08T13:19:56.448Z,29.69
2023-05-08T13:22:26.871Z,30.39
2023-05-08T13:24:55.476Z,31.04
2023-05-08T13:27:23.938Z,29.65
2023-05-08T13:29:52.476Z,30.25
2023-05-08T13:32:21.228Z,30.35
2023-05-08T13:34:51.681Z,29.99
2023-05-08T13:37:23.976Z,28.93
2023-05-08T13:39:54.406Z,29.10
2023-05-08T13:42:22.804Z,29.55
2023-05-08T13:44:51.300Z,29.22
2023-05-08T13:47:19.689Z,29.26
2023-05-08T13:49:50.447Z,29.55
2023-05-08T13:52:19.083Z,29.67
2023-05-08T13:54:48.834Z,29.86
2023-05-08T13:57:17.311Z,29.63
2023-05-08T13:59:45.750Z,28.76
2023-05-08T14:02:14.581Z,29.50
2023-05-08T14:04:43.623Z,30.26
2023-05-08T14:07:12.161Z,30.87
2023-05-08T14:09:40.657Z,30.21
2023-05-08T14:12:10.496Z,30.47
2023-05-08T14:14:39.107Z,30.01
2023-05-08T14:17:08.091Z,30.33
2023-05-08T14:19:36.480Z,29.79
2023-05-08T14:22:05.094Z,30.03
2023-05-08T14:24:33.464Z,29.42
2023-05-08T14:27:05.978Z,28.95
2023-05-08T14:29:35.965Z,28.45
2023-05-08T14:32:06.299Z,28.47
2023-05-08T14:34:34.776Z,28.66
2023-05-08T14:37:03.326Z,28.87
2023-05-08T14:39:32.038Z,29.81
2023-05-08T14:42:21.283Z,29.40
2023-05-08T14:44:52.826Z,28.44
2023-05-08T14:47:21.280Z,29.21
2023-05-08T14:49:49.676Z,29.05
2023-05-08T14:52:18.148Z,29.14
2023-05-08T14:54:48.135Z,29.61
2023-05-08T14:57:16.551Z,29.41
2023-05-08T14:59:54.194Z,29.80
2023-05-08T15:02:25.379Z,29.96
2023-05-08T15:04:54.094Z,30.11
2023-05-08T15:07:22.410Z,31.22
2023-05-08T15:09:50.888Z,31.39
2023-05-08T15:12:19.260Z,31.34
2023-05-08T15:14:47.674Z,30.59
2023-05-08T15:17:16.048Z,30.79
2023-05-08T15:19:46.960Z,31.11
2023-05-08T15:22:15.443Z,31.02
2023-05-08T15:24:43.823Z,31.09
2023-05-08T15:27:12.413Z,30.65
2023-05-08T15:29:40.979Z,30.65
2023-05-08T15:32:09.818Z,29.57
2023-05-08T15:34:40.525Z,29.52
2023-05-08T15:37:10.516Z,29.67
2023-05-08T15:39:39.051Z,30.14
2023-05-08T15:42:07.760Z,30.12
2023-05-08T15:47:08.271Z,30.32
2023-05-08T15:49:37.696Z,30.63
2023-05-08T15:52:07.107Z,30.43
2023-05-08T15:54:36.907Z,30.71
2023-05-08T15:57:06.405Z,30.82
2023-05-08T15:59:38.424Z,31.12
2023-05-08T16:02:07.297Z,31.04
2023-05-08T16:04:36.043Z,31.03
2023-05-08T16:07:04.632Z,31.21
2023-05-08T16:09:33.401Z,30.88
2023-05-08T16:12:03.287Z,31.11
2023-05-08T16:14:31.731Z,31.48
2023-05-08T16:17:00.196Z,31.94
2023-05-08T16:19:30.792Z,32.05
2023-05-08T16:22:00.306Z,32.04
2023-05-08T16:24:32.072Z,32.29
2023-05-08T16:27:00.616Z,32.27
2023-05-08T16:29:30.393Z,32.25
2023-05-08T16:31:59.009Z,33.09
2023-05-08T16:34:27.478Z,33.01
2023-05-08T16:36:58.577Z,32.87
2023-05-08T16:39:26.957Z,33.04
2023-05-08T16:41:55.389Z,32.94
2023-05-08T16:44:24.859Z,32.67
2023-05-08T16:46:55.669Z,32.67
2023-05-08T16:49:24.135Z,32.68
2023-05-08T16:51:52.506Z,32.95
2023-05-08T16:54:20.842Z,33.23
2023-05-08T16:56:50.252Z,33.01
2023-05-08T16:59:19.699Z,32.67
2023-05-08T17:01:48.139Z,32.81
2023-05-08T17:04:18.321Z,32.69
2023-05-08T17:06:47.045Z,33.07
2023-05-08T17:09:16.635Z,33.11
2023-05-08T17:11:45.050Z,32.98
2023-05-08T17:14:13.435Z,32.80
2023-05-08T17:16:43.923Z,32.92
2023-05-08T17:19:12.364Z,32.97
2023-05-08T17:21:42.186Z,33.30
2023-05-08T17:24:10.831Z,33.41
2023-05-08T17:26:41.207Z,33.16
2023-05-08T17:29:09.592Z,33.46
2023-05-08T17:31:38.145Z,33.13
2023-05-08T17:34:08.063Z,33.60
2023-05-08T17:36:36.545Z,33.50
2023-05-08T17:39:06.369Z,33.73
2023-05-08T17:41:34.770Z,33.74
2023-05-08T17:44:04.375Z,33.82
2023-05-08T17:46:32.927Z,33.89
2023-05-08T17:49:01.376Z,33.87
2023-05-08T17:51:29.864Z,34.03
2023-05-08T17:53:58.289Z,34.03
2023-05-08T17:58:57.724Z,33.81
2023-05-08T18:01:26.664Z,33.88
2023-05-08T18:03:56.485Z,34.54
2023-05-08T18:06:24.908Z,34.05
2023-05-08T18:08:53.340Z,33.68
2023-05-08T18:11:23.712Z,33.82
2023-05-08T18:13:55.382Z,33.54
2023-05-08T18:16:24.172Z,33.67
2023-05-08T18:18:52.487Z,33.65
2023-05-08T18:21:20.912Z,34.58
2023-05-08T18:23:49.241Z,34.74
2023-05-08T18:26:18.061Z,34.76
2023-05-08T18:28:46.388Z,34.78
2023-05-08T18:31:16.853Z,35.10
2023-05-08T18:33:46.005Z,34.85
2023-05-08T18:36:15.014Z,35.04
2023-05-08T18:38:44.025Z,35.10
2023-05-08T18:41:13.428Z,35.52
2023-05-08T18:43:42.576Z,35.23
2023-05-08T18:46:13.354Z,35.15
2023-05-08T18:48:43.440Z,35.37
2023-05-08T18:51:12.232Z,35.43
2023-05-08T18:53:42.736Z,35.23
2023-05-08T18:56:12.558Z,35.34
2023-05-08T18:58:41.253Z,35.60
2023-05-08T19:01:09.799Z,35.92
2023-05-08T19:03:38.288Z,36.01
2023-05-08T19:06:08.345Z,36.22
2023-05-08T19:08:36.732Z,36.15
2023-05-08T19:11:05.168Z,36.51
2023-05-08T19:13:33.552Z,36.74
2023-05-08T19:16:02.075Z,36.42
2023-05-08T19:18:31.805Z,36.94
2023-05-08T19:21:00.263Z,36.92
2023-05-08T19:23:30.091Z,37.74
2023-05-08T19:25:58.565Z,38.52
2023-05-08T19:28:27.029Z,39.09
2023-05-08T19:30:55.448Z,38.51
2023-05-08T19:33:23.929Z,38.41
2023-05-08T19:35:52.429Z,39.18
2023-05-08T19:38:20.893Z,38.71
2023-05-08T19:40:56.666Z,39.12
2023-05-08T19:43:26.069Z,39.37
2023-05-08T19:45:54.502Z,39.70
2023-05-08T19:48:23.021Z,39.62
2023-05-08T19:50:54.586Z,40.06
2023-05-08T19:53:23.837Z,40.38
2023-05-08T19:55:53.724Z,40.52
2023-05-08T19:58:22.218Z,40.57
2023-05-08T20:00:51.191Z,40.77
2023-05-08T20:03:22.464Z,41.10
2023-05-08T20:05:52.442Z,41.20
2023-05-08T20:08:21.074Z,41.06
2023-05-08T20:10:50.086Z,41.61
2023-05-08T20:13:20.135Z,41.40
2023-05-08T20:15:49.667Z,41.57
2023-05-08T20:18:18.056Z,41.45
2023-05-08T20:20:46.641Z,41.98
2023-05-08T20:23:15.503Z,42.04
2023-05-08T20:25:46.456Z,41.90
2023-05-08T20:28:15.118Z,42.26
2023-05-08T20:30:45.346Z,42.36
2023-05-08T20:33:13.915Z,42.43
2023-05-08T20:35:42.364Z,42.77
2023-05-08T20:38:11.062Z,42.88
2023-05-08T20:40:39.481Z,42.96
2023-05-08T20:43:07.961Z,42.97
2023-05-08T20:45:36.444Z,42.87
2023-05-08T20:48:06.918Z,42.38
2023-05-08T20:50:35.438Z,42.49
2023-05-08T20:53:03.780Z,42.89
2023-05-08T20:55:32.227Z,43.19
2023-05-08T20:58:02.077Z,43.29
2023-05-08T21:00:31.905Z,43.69
2023-05-08T21:03:00.541Z,43.71
2023-05-08T21:05:30.546Z,43.71
2023-05-08T21:08:02.407Z,43.42
2023-05-08T21:10:31.570Z,43.26
2023-05-08T21:13:00.046Z,43.07
2023-05-08T21:15:28.524Z,42.97
2023-05-08T21:17:57.816Z,43.15
2023-05-08T21:20:26.338Z,43.36
2023-05-08T21:22:57.121Z,43.74
2023-05-08T21:25:25.680Z,43.89
2023-05-08T21:27:55.356Z,43.78
2023-05-08T21:30:25.295Z,44.20
2023-05-08T21:32:53.858Z,44.52
2023-05-08T21:35:22.594Z,44.61
2023-05-08T21:37:54.507Z,44.67
2023-05-08T21:40:24.791Z,44.55
2023-05-08T21:42:53.292Z,44.38
2023-05-08T21:45:21.826Z,44.88
2023-05-08T21:47:50.276Z,45.57
2023-05-08T21:50:18.982Z,45.81
2023-05-08T21:52:47.370Z,46.03
2023-05-08T21:55:15.949Z,46.06
2023-05-08T21:57:45.908Z,45.86
2023-05-08T22:00:15.575Z,46.18
2023-05-08T22:02:49.901Z,46.28
2023-05-08T22:05:18.432Z,46.42
2023-05-08T22:07:46.775Z,46.79
2023-05-08T22:10:15.208Z,47.36
2023-05-08T22:12:43.571Z,47.53
2023-05-08T22:15:28.271Z,47.54
2023-05-08T22:17:58.610Z,48.01
2023-05-08T22:20:27.177Z,48.05
2023-05-08T22:22:55.779Z,47.99
2023-05-08T22:25:25.821Z,47.90
2023-05-08T22:27:54.248Z,48.18
2023-05-08T22:30:24.214Z,48.52
2023-05-08T22:32:56.539Z,48.75
2023-05-08T22:35:26.999Z,48.86
2023-05-08T22:37:57.361Z,48.89
2023-05-08T22:40:26.225Z,49.19
2023-05-08T22:42:55.982Z,49.67
2023-05-08T22:45:27.056Z,49.81
2023-05-08T22:47:55.831Z,49.98
2023-05-08T22:50:24.324Z,50.21
2023-05-08T22:52:52.822Z,50.14
2023-05-08T22:55:21.196Z,50.21
2023-05-08T22:57:49.592Z,50.62
2023-05-08T23:00:18.228Z,50.46
2023-05-08T23:02:48.227Z,50.79
2023-05-08T23:05:16.961Z,50.61
2023-05-08T23:07:45.586Z,50.54
2023-05-08T23:10:14.380Z,50.65
2023-05-08T23:12:42.857Z,50.37
2023-05-08T23:15:12.709Z,50.74
2023-05-08T23:17:42.420Z,51.23
2023-05-08T23:20:13.094Z,51.45
2023-05-08T23:22:41.617Z,51.66
2023-05-08T23:25:11.949Z,51.88
2023-05-08T23:27:40.486Z,52.07
2023-05-08T23:30:13.322Z,52.35
2023-05-08T23:32:42.217Z,52.51
2023-05-08T23:35:12.480Z,52.72
2023-05-08T23:37:41.086Z,53.00
2023-05-08T23:40:10.969Z,53.31
2023-05-08T23:42:39.930Z,53.72
2023-05-08T23:45:09.580Z,53.75
2023-05-08T23:47:39.018Z,54.04
2023-05-08T23:50:08.575Z,54.04
2023-05-08T23:52:38.454Z,54.06
2023-05-08T23:55:07.811Z,54.45
2023-05-08T23:57:36.325Z,54.37
